sensor_id;sensor_type;location;lat;lon;timestamp;temperature;humidity
6538;DHT22;3302;52.508;13.454;2024-03-08T00:00:13;3.70;86.90
6538;DHT22;3302;52.508;13.454;2024-03-08T00:02:40;3.60;87.20
6538;DHT22;3302;52.508;13.454;2024-03-08T00:05:08;3.60;87.00
6538;DHT22;3302;52.508;13.454;2024-03-08T00:07:37;3.50;87.00
6538;DHT22;3302;52.508;13.454;2024-03-08T00:10:04;3.50;87.50
6538;DHT22;3302;52.508;13.454;2024-03-08T00:12:32;3.50;87.80
6538;DHT22;3302;52.508;13.454;2024-03-08T00:14:58;3.40;87.40
6538;DHT22;3302;52.508;13.454;2024-03-08T00:17:24;3.50;87.80
6538;DHT22;3302;52.508;13.454;2024-03-08T00:19:50;3.50;87.50
6538;DHT22;3302;52.508;13.454;2024-03-08T00:22:17;3.50;87.40
6538;DHT22;3302;52.508;13.454;2024-03-08T00:24:43;3.50;87.70
6538;DHT22;3302;52.508;13.454;2024-03-08T00:27:09;3.50;87.80
6538;DHT22;3302;52.508;13.454;2024-03-08T00:29:35;3.50;87.80
6538;DHT22;3302;52.508;13.454;2024-03-08T00:32:01;3.30;88.10
6538;DHT22;3302;52.508;13.454;2024-03-08T00:34:27;3.40;88.20
6538;DHT22;3302;52.508;13.454;2024-03-08T00:36:52;3.30;88.30
6538;DHT22;3302;52.508;13.454;2024-03-08T00:39:19;3.30;88.10
6538;DHT22;3302;52.508;13.454;2024-03-08T00:41:48;3.40;88.40
6538;DHT22;3302;52.508;13.454;2024-03-08T00:44:14;3.30;88.80
6538;DHT22;3302;52.508;13.454;2024-03-08T00:46:40;3.20;88.40
6538;DHT22;3302;52.508;13.454;2024-03-08T00:49:06;3.20;88.50
6538;DHT22;3302;52.508;13.454;2024-03-08T00:51:32;3.20;89.00
6538;DHT22;3302;52.508;13.454;2024-03-08T00:53:58;3.20;90.00
6538;DHT22;3302;52.508;13.454;2024-03-08T00:56:24;3.20;88.80
6538;DHT22;3302;52.508;13.454;2024-03-08T00:58:50;3.20;88.90
6538;DHT22;3302;52.508;13.454;2024-03-08T01:01:18;3.20;88.90
6538;DHT22;3302;52.508;13.454;2024-03-08T01:03:44;3.10;89.30
6538;DHT22;3302;52.508;13.454;2024-03-08T01:06:10;3.00;89.40
6538;DHT22;3302;52.508;13.454;2024-03-08T01:08:37;3.00;90.00
6538;DHT22;3302;52.508;13.454;2024-03-08T01:11:04;3.10;89.60
6538;DHT22;3302;52.508;13.454;2024-03-08T01:13:33;3.10;89.60
6538;DHT22;3302;52.508;13.454;2024-03-08T01:15:59;3.00;90.00
6538;DHT22;3302;52.508;13.454;2024-03-08T01:18:24;3.00;90.00
6538;DHT22;3302;52.508;13.454;2024-03-08T01:20:50;3.10;90.00
6538;DHT22;3302;52.508;13.454;2024-03-08T01:23:16;3.10;89.90
6538;DHT22;3302;52.508;13.454;2024-03-08T01:25:42;3.00;90.00
6538;DHT22;3302;52.508;13.454;2024-03-08T01:28:09;3.00;90.10
6538;DHT22;3302;52.508;13.454;2024-03-08T01:30:35;3.00;90.20
6538;DHT22;3302;52.508;13.454;2024-03-08T01:33:03;3.00;90.10
6538;DHT22;3302;52.508;13.454;2024-03-08T01:35:29;3.00;90.20
6538;DHT22;3302;52.508;13.454;2024-03-08T01:37:55;3.00;90.20
6538;DHT22;3302;52.508;13.454;2024-03-08T01:40:21;3.00;90.20
6538;DHT22;3302;52.508;13.454;2024-03-08T01:42:48;3.00;90.30
6538;DHT22;3302;52.508;13.454;2024-03-08T01:45:14;3.00;90.30
6538;DHT22;3302;52.508;13.454;2024-03-08T01:47:40;2.90;90.30
6538;DHT22;3302;52.508;13.454;2024-03-08T01:50:06;2.90;90.50
6538;DHT22;3302;52.508;13.454;2024-03-08T01:52:34;2.90;90.30
6538;DHT22;3302;52.508;13.454;2024-03-08T01:55:01;2.80;90.50
6538;DHT22;3302;52.508;13.454;2024-03-08T01:57:29;2.90;90.70
6538;DHT22;3302;52.508;13.454;2024-03-08T01:59:56;2.90;90.50
6538;DHT22;3302;52.508;13.454;2024-03-08T02:02:22;2.80;90.50
6538;DHT22;3302;52.508;13.454;2024-03-08T02:04:48;2.90;90.60
6538;DHT22;3302;52.508;13.454;2024-03-08T02:07:16;2.90;90.60
6538;DHT22;3302;52.508;13.454;2024-03-08T02:09:42;2.80;90.60
6538;DHT22;3302;52.508;13.454;2024-03-08T02:12:08;2.80;90.80
6538;DHT22;3302;52.508;13.454;2024-03-08T02:14:34;2.70;91.00
6538;DHT22;3302;52.508;13.454;2024-03-08T02:17:02;2.60;91.00
6538;DHT22;3302;52.508;13.454;2024-03-08T02:19:28;2.60;91.10
6538;DHT22;3302;52.508;13.454;2024-03-08T02:21:54;2.50;91.20
6538;DHT22;3302;52.508;13.454;2024-03-08T02:24:21;2.50;91.80
6538;DHT22;3302;52.508;13.454;2024-03-08T02:26:46;2.50;91.60
6538;DHT22;3302;52.508;13.454;2024-03-08T02:29:12;2.60;91.50
6538;DHT22;3302;52.508;13.454;2024-03-08T02:31:40;2.60;91.30
6538;DHT22;3302;52.508;13.454;2024-03-08T02:34:05;2.60;91.50
6538;DHT22;3302;52.508;13.454;2024-03-08T02:36:31;2.50;91.60
6538;DHT22;3302;52.508;13.454;2024-03-08T02:39:04;2.60;91.60
6538;DHT22;3302;52.508;13.454;2024-03-08T02:41:31;2.50;91.60
6538;DHT22;3302;52.508;13.454;2024-03-08T02:43:56;2.50;91.80
6538;DHT22;3302;52.508;13.454;2024-03-08T02:46:22;2.40;92.00
6538;DHT22;3302;52.508;13.454;2024-03-08T02:48:48;2.50;91.90
6538;DHT22;3302;52.508;13.454;2024-03-08T02:51:14;2.50;91.90
6538;DHT22;3302;52.508;13.454;2024-03-08T02:53:41;2.50;91.90
6538;DHT22;3302;52.508;13.454;2024-03-08T02:56:08;2.40;92.00
6538;DHT22;3302;52.508;13.454;2024-03-08T02:58:38;2.50;92.00
6538;DHT22;3302;52.508;13.454;2024-03-08T03:01:04;2.50;92.00
6538;DHT22;3302;52.508;13.454;2024-03-08T03:03:30;2.40;92.20
6538;DHT22;3302;52.508;13.454;2024-03-08T03:05:55;2.50;92.20
6538;DHT22;3302;52.508;13.454;2024-03-08T03:08:21;2.40;92.30
6538;DHT22;3302;52.508;13.454;2024-03-08T03:10:47;2.50;92.30
6538;DHT22;3302;52.508;13.454;2024-03-08T03:13:13;2.40;92.30
6538;DHT22;3302;52.508;13.454;2024-03-08T03:15:40;2.40;92.40
6538;DHT22;3302;52.508;13.454;2024-03-08T03:18:08;2.30;92.50
6538;DHT22;3302;52.508;13.454;2024-03-08T03:20:34;2.30;92.70
6538;DHT22;3302;52.508;13.454;2024-03-08T03:23:06;2.30;92.80
6538;DHT22;3302;52.508;13.454;2024-03-08T03:25:34;2.30;92.80
6538;DHT22;3302;52.508;13.454;2024-03-08T03:28:04;2.30;92.90
6538;DHT22;3302;52.508;13.454;2024-03-08T03:30:30;2.30;92.90
6538;DHT22;3302;52.508;13.454;2024-03-08T03:33:00;2.20;92.90
6538;DHT22;3302;52.508;13.454;2024-03-08T03:35:29;2.20;93.10
6538;DHT22;3302;52.508;13.454;2024-03-08T03:37:55;2.20;93.60
6538;DHT22;3302;52.508;13.454;2024-03-08T03:40:41;2.20;93.20
6538;DHT22;3302;52.508;13.454;2024-03-08T03:43:07;2.20;93.00
6538;DHT22;3302;52.508;13.454;2024-03-08T03:45:35;2.20;93.10
6538;DHT22;3302;52.508;13.454;2024-03-08T03:48:03;2.20;93.50
6538;DHT22;3302;52.508;13.454;2024-03-08T03:50:29;2.20;93.50
6538;DHT22;3302;52.508;13.454;2024-03-08T03:52:56;2.20;93.30
6538;DHT22;3302;52.508;13.454;2024-03-08T03:55:22;2.20;93.30
6538;DHT22;3302;52.508;13.454;2024-03-08T03:57:48;2.20;93.30
6538;DHT22;3302;52.508;13.454;2024-03-08T04:00:14;2.20;93.50
6538;DHT22;3302;52.508;13.454;2024-03-08T04:02:41;2.20;93.60
6538;DHT22;3302;52.508;13.454;2024-03-08T04:05:09;2.10;93.50
6538;DHT22;3302;52.508;13.454;2024-03-08T04:07:39;2.10;93.60
6538;DHT22;3302;52.508;13.454;2024-03-08T04:10:07;2.20;93.60
6538;DHT22;3302;52.508;13.454;2024-03-08T04:12:34;2.10;93.70
6538;DHT22;3302;52.508;13.454;2024-03-08T04:15:00;2.10;93.90
6538;DHT22;3302;52.508;13.454;2024-03-08T04:17:26;2.10;93.90
6538;DHT22;3302;52.508;13.454;2024-03-08T04:19:52;2.10;94.00
6538;DHT22;3302;52.508;13.454;2024-03-08T04:22:19;2.10;94.10
6538;DHT22;3302;52.508;13.454;2024-03-08T04:24:45;2.00;94.00
6538;DHT22;3302;52.508;13.454;2024-03-08T04:27:12;2.00;94.50
6538;DHT22;3302;52.508;13.454;2024-03-08T04:29:38;2.00;94.30
6538;DHT22;3302;52.508;13.454;2024-03-08T04:32:05;1.90;94.30
6538;DHT22;3302;52.508;13.454;2024-03-08T04:34:32;1.90;94.70
6538;DHT22;3302;52.508;13.454;2024-03-08T04:37:03;2.00;94.60
6538;DHT22;3302;52.508;13.454;2024-03-08T04:39:31;1.90;94.60
6538;DHT22;3302;52.508;13.454;2024-03-08T04:41:59;1.90;94.80
6538;DHT22;3302;52.508;13.454;2024-03-08T04:44:29;1.90;94.60
6538;DHT22;3302;52.508;13.454;2024-03-08T04:46:55;2.00;94.60
6538;DHT22;3302;52.508;13.454;2024-03-08T04:49:21;1.90;94.80
6538;DHT22;3302;52.508;13.454;2024-03-08T04:51:48;1.90;94.80
6538;DHT22;3302;52.508;13.454;2024-03-08T04:54:14;1.80;94.70
6538;DHT22;3302;52.508;13.454;2024-03-08T04:56:39;1.80;95.10
6538;DHT22;3302;52.508;13.454;2024-03-08T04:59:05;1.80;95.30
6538;DHT22;3302;52.508;13.454;2024-03-08T05:01:34;1.70;95.40
6538;DHT22;3302;52.508;13.454;2024-03-08T05:04:03;1.80;95.30
6538;DHT22;3302;52.508;13.454;2024-03-08T05:06:29;1.70;95.50
6538;DHT22;3302;52.508;13.454;2024-03-08T05:08:56;1.70;95.80
6538;DHT22;3302;52.508;13.454;2024-03-08T05:11:22;1.70;95.80
6538;DHT22;3302;52.508;13.454;2024-03-08T05:13:47;1.70;95.80
6538;DHT22;3302;52.508;13.454;2024-03-08T05:16:13;1.70;95.70
6538;DHT22;3302;52.508;13.454;2024-03-08T05:18:41;1.60;95.90
6538;DHT22;3302;52.508;13.454;2024-03-08T05:21:07;1.60;96.20
6538;DHT22;3302;52.508;13.454;2024-03-08T05:23:35;1.60;96.20
6538;DHT22;3302;52.508;13.454;2024-03-08T05:26:00;1.50;96.30
6538;DHT22;3302;52.508;13.454;2024-03-08T05:28:26;1.60;96.50
6538;DHT22;3302;52.508;13.454;2024-03-08T05:30:52;1.70;96.60
6538;DHT22;3302;52.508;13.454;2024-03-08T05:33:18;1.60;96.40
6538;DHT22;3302;52.508;13.454;2024-03-08T05:35:45;1.60;96.40
6538;DHT22;3302;52.508;13.454;2024-03-08T05:38:10;1.50;96.70
6538;DHT22;3302;52.508;13.454;2024-03-08T05:40:38;1.50;96.70
6538;DHT22;3302;52.508;13.454;2024-03-08T05:43:04;1.50;96.90
6538;DHT22;3302;52.508;13.454;2024-03-08T05:45:31;1.50;97.00
6538;DHT22;3302;52.508;13.454;2024-03-08T05:47:56;1.50;97.00
6538;DHT22;3302;52.508;13.454;2024-03-08T05:50:22;1.40;97.10
6538;DHT22;3302;52.508;13.454;2024-03-08T05:52:48;1.30;97.60
6538;DHT22;3302;52.508;13.454;2024-03-08T05:55:15;1.20;97.80
6538;DHT22;3302;52.508;13.454;2024-03-08T05:57:41;1.30;97.80
6538;DHT22;3302;52.508;13.454;2024-03-08T06:00:09;1.40;97.70
6538;DHT22;3302;52.508;13.454;2024-03-08T06:02:38;1.50;97.70
6538;DHT22;3302;52.508;13.454;2024-03-08T06:05:15;1.40;97.70
6538;DHT22;3302;52.508;13.454;2024-03-08T06:07:41;1.40;97.70
6538;DHT22;3302;52.508;13.454;2024-03-08T06:10:11;1.50;97.60
6538;DHT22;3302;52.508;13.454;2024-03-08T06:12:38;1.60;97.50
6538;DHT22;3302;52.508;13.454;2024-03-08T06:15:10;1.40;97.80
6538;DHT22;3302;52.508;13.454;2024-03-08T06:17:42;1.40;97.90
6538;DHT22;3302;52.508;13.454;2024-03-08T06:20:09;1.40;97.90
6538;DHT22;3302;52.508;13.454;2024-03-08T06:22:41;1.40;98.00
6538;DHT22;3302;52.508;13.454;2024-03-08T06:25:11;1.50;97.70
6538;DHT22;3302;52.508;13.454;2024-03-08T06:27:41;1.40;97.90
6538;DHT22;3302;52.508;13.454;2024-03-08T06:30:09;1.50;98.00
6538;DHT22;3302;52.508;13.454;2024-03-08T06:32:36;1.60;98.00
6538;DHT22;3302;52.508;13.454;2024-03-08T06:35:03;1.50;97.90
6538;DHT22;3302;52.508;13.454;2024-03-08T06:37:34;1.60;98.00
6538;DHT22;3302;52.508;13.454;2024-03-08T06:40:01;1.60;97.90
6538;DHT22;3302;52.508;13.454;2024-03-08T06:42:27;1.60;97.80
6538;DHT22;3302;52.508;13.454;2024-03-08T06:44:54;1.60;97.80
6538;DHT22;3302;52.508;13.454;2024-03-08T06:47:21;1.70;97.70
6538;DHT22;3302;52.508;13.454;2024-03-08T06:49:51;1.80;97.40
6538;DHT22;3302;52.508;13.454;2024-03-08T06:52:17;1.80;97.70
6538;DHT22;3302;52.508;13.454;2024-03-08T06:54:43;1.90;97.10
6538;DHT22;3302;52.508;13.454;2024-03-08T06:57:09;1.80;97.00
6538;DHT22;3302;52.508;13.454;2024-03-08T06:59:37;1.90;97.00
6538;DHT22;3302;52.508;13.454;2024-03-08T07:02:03;2.00;96.60
6538;DHT22;3302;52.508;13.454;2024-03-08T07:04:29;2.00;96.80
6538;DHT22;3302;52.508;13.454;2024-03-08T07:06:58;2.00;96.50
6538;DHT22;3302;52.508;13.454;2024-03-08T07:09:24;2.00;96.40
6538;DHT22;3302;52.508;13.454;2024-03-08T07:11:51;2.00;96.40
6538;DHT22;3302;52.508;13.454;2024-03-08T07:14:23;2.10;95.90
6538;DHT22;3302;52.508;13.454;2024-03-08T07:16:49;2.20;96.00
6538;DHT22;3302;52.508;13.454;2024-03-08T07:19:16;2.20;95.50
6538;DHT22;3302;52.508;13.454;2024-03-08T07:21:43;2.20;95.50
6538;DHT22;3302;52.508;13.454;2024-03-08T07:24:10;2.30;95.40
6538;DHT22;3302;52.508;13.454;2024-03-08T07:26:54;2.40;95.40
6538;DHT22;3302;52.508;13.454;2024-03-08T07:29:22;2.50;95.00
6538;DHT22;3302;52.508;13.454;2024-03-08T07:31:47;2.50;94.70
6538;DHT22;3302;52.508;13.454;2024-03-08T07:34:22;2.40;94.80
6538;DHT22;3302;52.508;13.454;2024-03-08T07:36:47;2.50;94.80
6538;DHT22;3302;52.508;13.454;2024-03-08T07:39:16;2.70;94.60
6538;DHT22;3302;52.508;13.454;2024-03-08T07:41:43;2.80;94.30
6538;DHT22;3302;52.508;13.454;2024-03-08T07:44:08;2.90;94.00
6538;DHT22;3302;52.508;13.454;2024-03-08T07:46:35;3.00;93.80
6538;DHT22;3302;52.508;13.454;2024-03-08T07:49:02;3.00;93.80
6538;DHT22;3302;52.508;13.454;2024-03-08T07:51:28;2.90;93.50
6538;DHT22;3302;52.508;13.454;2024-03-08T07:53:54;3.00;93.40
6538;DHT22;3302;52.508;13.454;2024-03-08T07:56:20;3.10;93.20
6538;DHT22;3302;52.508;13.454;2024-03-08T07:58:47;3.10;92.90
6538;DHT22;3302;52.508;13.454;2024-03-08T08:01:17;3.10;93.00
6538;DHT22;3302;52.508;13.454;2024-03-08T08:03:44;3.30;92.80
6538;DHT22;3302;52.508;13.454;2024-03-08T08:06:10;3.40;92.90
6538;DHT22;3302;52.508;13.454;2024-03-08T08:08:44;3.50;92.20
6538;DHT22;3302;52.508;13.454;2024-03-08T08:11:10;3.40;91.90
6538;DHT22;3302;52.508;13.454;2024-03-08T08:13:41;3.40;92.20
6538;DHT22;3302;52.508;13.454;2024-03-08T08:16:09;3.40;92.00
6538;DHT22;3302;52.508;13.454;2024-03-08T08:18:36;3.60;91.80
6538;DHT22;3302;52.508;13.454;2024-03-08T08:21:02;3.70;91.60
6538;DHT22;3302;52.508;13.454;2024-03-08T08:23:28;3.80;91.40
6538;DHT22;3302;52.508;13.454;2024-03-08T08:25:55;4.00;91.20
6538;DHT22;3302;52.508;13.454;2024-03-08T08:28:21;4.00;90.70
6538;DHT22;3302;52.508;13.454;2024-03-08T08:30:47;4.20;90.30
6538;DHT22;3302;52.508;13.454;2024-03-08T08:33:14;4.30;89.90
6538;DHT22;3302;52.508;13.454;2024-03-08T08:35:40;4.30;90.10
6538;DHT22;3302;52.508;13.454;2024-03-08T08:38:06;4.30;90.70
6538;DHT22;3302;52.508;13.454;2024-03-08T08:40:35;4.40;89.40
6538;DHT22;3302;52.508;13.454;2024-03-08T08:43:02;4.40;88.30
6538;DHT22;3302;52.508;13.454;2024-03-08T08:45:32;4.40;87.80
6538;DHT22;3302;52.508;13.454;2024-03-08T08:47:59;4.70;88.70
6538;DHT22;3302;52.508;13.454;2024-03-08T08:50:25;4.70;86.90
6538;DHT22;3302;52.508;13.454;2024-03-08T08:52:54;4.80;86.90
6538;DHT22;3302;52.508;13.454;2024-03-08T08:55:20;4.80;86.30
6538;DHT22;3302;52.508;13.454;2024-03-08T08:57:47;4.90;88.10
6538;DHT22;3302;52.508;13.454;2024-03-08T09:00:21;4.80;86.40
6538;DHT22;3302;52.508;13.454;2024-03-08T09:02:47;5.00;86.50
6538;DHT22;3302;52.508;13.454;2024-03-08T09:05:14;5.00;86.80
6538;DHT22;3302;52.508;13.454;2024-03-08T09:07:43;5.10;86.20
6538;DHT22;3302;52.508;13.454;2024-03-08T09:10:10;5.10;85.50
6538;DHT22;3302;52.508;13.454;2024-03-08T09:12:38;5.20;84.30
6538;DHT22;3302;52.508;13.454;2024-03-08T09:15:05;5.30;83.90
6538;DHT22;3302;52.508;13.454;2024-03-08T09:17:34;5.30;84.40
6538;DHT22;3302;52.508;13.454;2024-03-08T09:20:00;5.40;84.30
6538;DHT22;3302;52.508;13.454;2024-03-08T09:22:26;5.50;83.40
6538;DHT22;3302;52.508;13.454;2024-03-08T09:24:51;5.50;83.60
6538;DHT22;3302;52.508;13.454;2024-03-08T09:27:17;5.70;83.80
6538;DHT22;3302;52.508;13.454;2024-03-08T09:29:43;5.70;82.60
6538;DHT22;3302;52.508;13.454;2024-03-08T09:32:10;5.80;81.60
6538;DHT22;3302;52.508;13.454;2024-03-08T09:34:37;5.70;80.80
6538;DHT22;3302;52.508;13.454;2024-03-08T09:37:03;5.70;81.30
6538;DHT22;3302;52.508;13.454;2024-03-08T09:39:30;5.90;81.00
6538;DHT22;3302;52.508;13.454;2024-03-08T09:41:56;6.00;80.30
6538;DHT22;3302;52.508;13.454;2024-03-08T09:44:22;6.00;80.10
6538;DHT22;3302;52.508;13.454;2024-03-08T09:46:49;6.10;79.50
6538;DHT22;3302;52.508;13.454;2024-03-08T09:49:19;5.80;79.50
6538;DHT22;3302;52.508;13.454;2024-03-08T09:51:45;6.00;79.50
6538;DHT22;3302;52.508;13.454;2024-03-08T09:54:12;6.00;79.40
6538;DHT22;3302;52.508;13.454;2024-03-08T09:56:39;6.10;79.30
6538;DHT22;3302;52.508;13.454;2024-03-08T09:59:10;6.20;78.10
6538;DHT22;3302;52.508;13.454;2024-03-08T10:01:51;6.30;77.30
6538;DHT22;3302;52.508;13.454;2024-03-08T10:04:24;6.50;76.80
6538;DHT22;3302;52.508;13.454;2024-03-08T10:06:51;6.30;76.60
6538;DHT22;3302;52.508;13.454;2024-03-08T10:09:18;6.40;76.20
6538;DHT22;3302;52.508;13.454;2024-03-08T10:11:44;6.40;76.50
6538;DHT22;3302;52.508;13.454;2024-03-08T10:14:11;6.50;76.20
6538;DHT22;3302;52.508;13.454;2024-03-08T10:16:38;6.60;75.70
6538;DHT22;3302;52.508;13.454;2024-03-08T10:19:05;6.80;75.00
6538;DHT22;3302;52.508;13.454;2024-03-08T10:21:32;6.60;75.10
6538;DHT22;3302;52.508;13.454;2024-03-08T10:24:02;6.70;74.80
6538;DHT22;3302;52.508;13.454;2024-03-08T10:26:28;6.70;73.60
6538;DHT22;3302;52.508;13.454;2024-03-08T10:28:55;6.60;74.10
6538;DHT22;3302;52.508;13.454;2024-03-08T10:31:23;6.80;74.10
6538;DHT22;3302;52.508;13.454;2024-03-08T10:33:49;6.90;73.80
6538;DHT22;3302;52.508;13.454;2024-03-08T10:36:15;6.80;73.50
6538;DHT22;3302;52.508;13.454;2024-03-08T10:38:43;6.90;73.60
6538;DHT22;3302;52.508;13.454;2024-03-08T10:41:12;7.00;71.70
6538;DHT22;3302;52.508;13.454;2024-03-08T10:44:08;7.00;70.70
6538;DHT22;3302;52.508;13.454;2024-03-08T10:52:15;7.10;69.30
6538;DHT22;3302;52.508;13.454;2024-03-08T10:54:43;7.30;69.00
6538;DHT22;3302;52.508;13.454;2024-03-08T10:57:12;7.20;68.40
6538;DHT22;3302;52.508;13.454;2024-03-08T10:59:39;7.40;68.60
6538;DHT22;3302;52.508;13.454;2024-03-08T11:02:05;7.40;67.90
6538;DHT22;3302;52.508;13.454;2024-03-08T11:04:31;7.50;68.40
6538;DHT22;3302;52.508;13.454;2024-03-08T11:07:03;7.30;67.70
6538;DHT22;3302;52.508;13.454;2024-03-08T11:09:38;7.70;67.70
6538;DHT22;3302;52.508;13.454;2024-03-08T11:12:23;7.70;67.00
6538;DHT22;3302;52.508;13.454;2024-03-08T11:15:15;7.60;66.10
6538;DHT22;3302;52.508;13.454;2024-03-08T11:17:48;7.60;66.60
6538;DHT22;3302;52.508;13.454;2024-03-08T11:20:19;7.80;64.70
6538;DHT22;3302;52.508;13.454;2024-03-08T11:22:56;7.80;64.10
6538;DHT22;3302;52.508;13.454;2024-03-08T11:25:39;7.90;63.70
6538;DHT22;3302;52.508;13.454;2024-03-08T11:28:17;7.60;64.10
6538;DHT22;3302;52.508;13.454;2024-03-08T11:33:14;7.70;64.00
6538;DHT22;3302;52.508;13.454;2024-03-08T11:35:42;8.00;64.70
6538;DHT22;3302;52.508;13.454;2024-03-08T11:38:10;8.10;63.90
6538;DHT22;3302;52.508;13.454;2024-03-08T11:40:36;8.10;63.50
6538;DHT22;3302;52.508;13.454;2024-03-08T11:43:02;8.10;62.70
6538;DHT22;3302;52.508;13.454;2024-03-08T11:45:36;8.10;63.00
6538;DHT22;3302;52.508;13.454;2024-03-08T11:48:05;8.00;62.50
6538;DHT22;3302;52.508;13.454;2024-03-08T11:50:31;8.00;62.80
6538;DHT22;3302;52.508;13.454;2024-03-08T11:53:04;8.20;63.40
6538;DHT22;3302;52.508;13.454;2024-03-08T11:55:33;8.10;63.40
6538;DHT22;3302;52.508;13.454;2024-03-08T11:58:02;8.20;63.40
6538;DHT22;3302;52.508;13.454;2024-03-08T12:00:28;8.10;63.10
6538;DHT22;3302;52.508;13.454;2024-03-08T12:03:07;8.20;63.20
6538;DHT22;3302;52.508;13.454;2024-03-08T12:05:35;8.30;62.50
6538;DHT22;3302;52.508;13.454;2024-03-08T12:08:02;8.20;63.00
6538;DHT22;3302;52.508;13.454;2024-03-08T12:10:28;8.30;62.90
6538;DHT22;3302;52.508;13.454;2024-03-08T12:12:58;8.30;63.10
6538;DHT22;3302;52.508;13.454;2024-03-08T12:15:29;8.30;62.20
6538;DHT22;3302;52.508;13.454;2024-03-08T12:17:56;8.20;62.00
6538;DHT22;3302;52.508;13.454;2024-03-08T12:20:27;8.40;62.60
6538;DHT22;3302;52.508;13.454;2024-03-08T12:22:56;8.30;62.50
6538;DHT22;3302;52.508;13.454;2024-03-08T12:25:23;8.20;62.10
6538;DHT22;3302;52.508;13.454;2024-03-08T12:27:52;8.40;61.40
6538;DHT22;3302;52.508;13.454;2024-03-08T12:30:26;8.30;61.00
6538;DHT22;3302;52.508;13.454;2024-03-08T12:35:20;8.20;61.00
6538;DHT22;3302;52.508;13.454;2024-03-08T12:37:52;8.30;60.70
6538;DHT22;3302;52.508;13.454;2024-03-08T12:40:19;8.30;61.30
6538;DHT22;3302;52.508;13.454;2024-03-08T12:42:50;8.40;60.90
6538;DHT22;3302;52.508;13.454;2024-03-08T12:45:16;8.50;60.70
6538;DHT22;3302;52.508;13.454;2024-03-08T12:47:42;8.50;60.90
6538;DHT22;3302;52.508;13.454;2024-03-08T12:50:10;8.60;60.80
6538;DHT22;3302;52.508;13.454;2024-03-08T12:52:35;8.50;60.70
6538;DHT22;3302;52.508;13.454;2024-03-08T12:55:02;8.40;60.60
6538;DHT22;3302;52.508;13.454;2024-03-08T12:57:28;8.40;60.60
6538;DHT22;3302;52.508;13.454;2024-03-08T12:59:54;8.60;60.40
6538;DHT22;3302;52.508;13.454;2024-03-08T13:02:22;8.50;60.40
6538;DHT22;3302;52.508;13.454;2024-03-08T13:04:49;8.50;60.50
6538;DHT22;3302;52.508;13.454;2024-03-08T13:07:23;8.60;59.90
6538;DHT22;3302;52.508;13.454;2024-03-08T13:09:54;8.60;60.40
6538;DHT22;3302;52.508;13.454;2024-03-08T13:12:21;8.80;59.70
6538;DHT22;3302;52.508;13.454;2024-03-08T13:14:47;8.50;59.50
6538;DHT22;3302;52.508;13.454;2024-03-08T13:17:14;8.40;60.30
6538;DHT22;3302;52.508;13.454;2024-03-08T13:19:40;8.50;60.40
6538;DHT22;3302;52.508;13.454;2024-03-08T13:22:08;8.60;60.10
6538;DHT22;3302;52.508;13.454;2024-03-08T13:24:41;8.70;60.40
6538;DHT22;3302;52.508;13.454;2024-03-08T13:27:07;8.80;59.30
6538;DHT22;3302;52.508;13.454;2024-03-08T13:29:46;8.70;59.50
6538;DHT22;3302;52.508;13.454;2024-03-08T13:32:13;8.90;59.40
6538;DHT22;3302;52.508;13.454;2024-03-08T13:34:43;8.90;59.00
6538;DHT22;3302;52.508;13.454;2024-03-08T13:37:09;8.90;58.70
6538;DHT22;3302;52.508;13.454;2024-03-08T13:39:37;8.70;59.00
6538;DHT22;3302;52.508;13.454;2024-03-08T13:42:07;8.70;58.80
6538;DHT22;3302;52.508;13.454;2024-03-08T13:44:36;8.80;59.00
6538;DHT22;3302;52.508;13.454;2024-03-08T13:47:02;8.80;59.20
6538;DHT22;3302;52.508;13.454;2024-03-08T13:49:31;8.80;59.10
6538;DHT22;3302;52.508;13.454;2024-03-08T13:51:57;8.80;58.60
6538;DHT22;3302;52.508;13.454;2024-03-08T13:54:24;8.70;58.50
6538;DHT22;3302;52.508;13.454;2024-03-08T13:56:52;8.70;58.40
6538;DHT22;3302;52.508;13.454;2024-03-08T13:59:20;8.70;58.30
6538;DHT22;3302;52.508;13.454;2024-03-08T14:01:48;8.70;58.10
6538;DHT22;3302;52.508;13.454;2024-03-08T14:04:14;8.70;58.00
6538;DHT22;3302;52.508;13.454;2024-03-08T14:06:42;8.70;59.00
6538;DHT22;3302;52.508;13.454;2024-03-08T14:09:11;8.80;57.90
6538;DHT22;3302;52.508;13.454;2024-03-08T14:11:45;8.80;57.80
6538;DHT22;3302;52.508;13.454;2024-03-08T14:14:12;8.80;58.50
6538;DHT22;3302;52.508;13.454;2024-03-08T14:16:42;8.80;59.60
6538;DHT22;3302;52.508;13.454;2024-03-08T14:19:08;8.90;59.00
6538;DHT22;3302;52.508;13.454;2024-03-08T14:21:35;8.90;60.80
6538;DHT22;3302;52.508;13.454;2024-03-08T14:24:02;9.00;59.90
6538;DHT22;3302;52.508;13.454;2024-03-08T14:26:30;8.90;58.90
6538;DHT22;3302;52.508;13.454;2024-03-08T14:28:56;8.90;59.90
6538;DHT22;3302;52.508;13.454;2024-03-08T14:31:22;8.90;58.50
6538;DHT22;3302;52.508;13.454;2024-03-08T14:33:52;9.00;59.20
6538;DHT22;3302;52.508;13.454;2024-03-08T14:36:19;8.90;59.00
6538;DHT22;3302;52.508;13.454;2024-03-08T14:38:51;9.00;59.20
6538;DHT22;3302;52.508;13.454;2024-03-08T14:41:18;9.00;59.40
6538;DHT22;3302;52.508;13.454;2024-03-08T14:43:44;9.10;58.50
6538;DHT22;3302;52.508;13.454;2024-03-08T14:46:18;9.10;58.90
6538;DHT22;3302;52.508;13.454;2024-03-08T14:48:46;9.30;58.80
6538;DHT22;3302;52.508;13.454;2024-03-08T14:51:13;9.20;59.10
6538;DHT22;3302;52.508;13.454;2024-03-08T14:53:43;9.20;59.10
6538;DHT22;3302;52.508;13.454;2024-03-08T14:56:11;9.10;57.90
6538;DHT22;3302;52.508;13.454;2024-03-08T14:58:44;9.20;57.30
6538;DHT22;3302;52.508;13.454;2024-03-08T15:01:11;9.30;56.90
6538;DHT22;3302;52.508;13.454;2024-03-08T15:03:40;9.90;57.40
6538;DHT22;3302;52.508;13.454;2024-03-08T15:06:06;10.10;54.90
6538;DHT22;3302;52.508;13.454;2024-03-08T15:08:37;9.60;54.30
6538;DHT22;3302;52.508;13.454;2024-03-08T15:11:04;9.50;54.00
6538;DHT22;3302;52.508;13.454;2024-03-08T15:13:32;9.40;53.90
6538;DHT22;3302;52.508;13.454;2024-03-08T15:16:10;9.40;53.80
6538;DHT22;3302;52.508;13.454;2024-03-08T15:18:42;9.90;53.50
6538;DHT22;3302;52.508;13.454;2024-03-08T15:21:13;10.10;52.90
6538;DHT22;3302;52.508;13.454;2024-03-08T15:23:43;10.30;51.80
6538;DHT22;3302;52.508;13.454;2024-03-08T15:26:15;10.30;53.20
6538;DHT22;3302;52.508;13.454;2024-03-08T15:28:43;10.70;51.20
6538;DHT22;3302;52.508;13.454;2024-03-08T15:31:10;10.10;52.60
6538;DHT22;3302;52.508;13.454;2024-03-08T15:33:38;10.20;53.00
6538;DHT22;3302;52.508;13.454;2024-03-08T15:36:11;10.30;52.70
6538;DHT22;3302;52.508;13.454;2024-03-08T15:38:40;10.20;51.90
6538;DHT22;3302;52.508;13.454;2024-03-08T15:41:06;9.90;52.70
6538;DHT22;3302;52.508;13.454;2024-03-08T15:43:36;9.50;54.30
6538;DHT22;3302;52.508;13.454;2024-03-08T15:46:06;9.70;54.60
6538;DHT22;3302;52.508;13.454;2024-03-08T15:48:33;9.80;54.50
6538;DHT22;3302;52.508;13.454;2024-03-08T15:51:01;9.50;54.30
6538;DHT22;3302;52.508;13.454;2024-03-08T15:53:34;9.50;54.90
6538;DHT22;3302;52.508;13.454;2024-03-08T15:56:01;9.60;55.50
6538;DHT22;3302;52.508;13.454;2024-03-08T15:58:28;9.10;55.20
6538;DHT22;3302;52.508;13.454;2024-03-08T16:00:56;8.90;56.40
6538;DHT22;3302;52.508;13.454;2024-03-08T16:03:22;9.10;56.20
6538;DHT22;3302;52.508;13.454;2024-03-08T16:05:48;9.00;56.70
6538;DHT22;3302;52.508;13.454;2024-03-08T16:08:16;8.90;56.60
6538;DHT22;3302;52.508;13.454;2024-03-08T16:10:47;8.80;56.80
6538;DHT22;3302;52.508;13.454;2024-03-08T16:13:24;8.90;57.00
6538;DHT22;3302;52.508;13.454;2024-03-08T16:15:54;8.80;56.50